sensor_id;sensor_type;location;lat;lon;timestamp;pressure;altitude;pressure_sealevel;temperature;humidity
75891;BME280;64571;47.512;19.054;2023-05-10T00:01:22;100655.19;;;13.72;61.93
75891;BME280;64571;47.512;19.054;2023-05-10T00:04:25;100668.31;;;13.85;61.84
75891;BME280;64571;47.512;19.054;2023-05-10T00:07:29;100663.16;;;13.78;62.19
75891;BME280;64571;47.512;19.054;2023-05-10T00:10:32;100659.50;;;13.78;62.23
75891;BME280;64571;47.512;19.054;2023-05-10T00:13:34;100661.78;;;13.76;62.41
75891;BME280;64571;47.512;19.054;2023-05-10T00:16:37;100658.19;;;13.75;62.54
75891;BME280;64571;47.512;19.054;2023-05-10T00:19:39;100660.87;;;13.66;62.66
75891;BME280;64571;47.512;19.054;2023-05-10T00:22:42;100646.00;;;13.43;63.47
75891;BME280;64571;47.512;19.054;2023-05-10T00:25:44;100664.94;;;13.60;63.15
75891;BME280;64571;47.512;19.054;2023-05-10T00:28:47;100659.62;;;13.59;63.34
75891;BME280;64571;47.512;19.054;2023-05-10T00:31:49;100661.50;;;13.50;63.72
75891;BME280;64571;47.512;19.054;2023-05-10T00:34:52;100657.78;;;13.40;64.04
75891;BME280;64571;47.512;19.054;2023-05-10T00:37:55;100656.66;;;13.41;64.04
75891;BME280;64571;47.512;19.054;2023-05-10T00:40:57;100649.63;;;13.30;64.46
75891;BME280;64571;47.512;19.054;2023-05-10T00:44:00;100646.72;;;13.22;64.77
75891;BME280;64571;47.512;19.054;2023-05-10T00:47:04;100649.50;;;13.22;64.80
75891;BME280;64571;47.512;19.054;2023-05-10T00:50:07;100652.72;;;13.15;64.98
75891;BME280;64571;47.512;19.054;2023-05-10T00:53:11;100651.56;;;13.16;64.97
75891;BME280;64571;47.512;19.054;2023-05-10T00:56:15;100645.56;;;13.09;65.12
75891;BME280;64571;47.512;19.054;2023-05-10T00:59:18;100633.56;;;12.95;65.51
75891;BME280;64571;47.512;19.054;2023-05-10T01:02:21;100645.88;;;13.07;65.11
75891;BME280;64571;47.512;19.054;2023-05-10T01:05:24;100649.50;;;13.08;65.43
75891;BME280;64571;47.512;19.054;2023-05-10T01:08:27;100646.38;;;12.96;66.04
75891;BME280;64571;47.512;19.054;2023-05-10T01:11:30;100647.00;;;12.92;66.13
75891;BME280;64571;47.512;19.054;2023-05-10T01:14:33;100624.25;;;12.85;65.83
75891;BME280;64571;47.512;19.054;2023-05-10T01:17:40;100634.81;;;12.88;66.23
75891;BME280;64571;47.512;19.054;2023-05-10T01:20:47;100657.13;;;12.88;66.39
75891;BME280;64571;47.512;19.054;2023-05-10T01:24:17;100625.78;;;12.78;66.22
75891;BME280;64571;47.512;19.054;2023-05-10T01:34:35;100640.53;;;12.78;67.22
75891;BME280;64571;47.512;19.054;2023-05-10T01:37:43;100647.81;;;12.79;67.42
75891;BME280;64571;47.512;19.054;2023-05-10T01:44:16;100636.56;;;12.84;67.12
75891;BME280;64571;47.512;19.054;2023-05-10T01:50:43;100632.19;;;12.78;67.51
75891;BME280;64571;47.512;19.054;2023-05-10T01:53:48;100638.41;;;12.75;67.82
75891;BME280;64571;47.512;19.054;2023-05-10T01:57:03;100613.78;;;12.63;67.64
75891;BME280;64571;47.512;19.054;2023-05-10T02:00:08;100618.34;;;12.73;67.23
75891;BME280;64571;47.512;19.054;2023-05-10T02:03:16;100622.69;;;12.79;67.20
75891;BME280;64571;47.512;19.054;2023-05-10T02:06:22;100622.38;;;12.81;67.11
75891;BME280;64571;47.512;19.054;2023-05-10T02:09:27;100623.00;;;12.78;67.03
75891;BME280;64571;47.512;19.054;2023-05-10T02:12:35;100627.66;;;12.82;66.99
75891;BME280;64571;47.512;19.054;2023-05-10T02:15:40;100622.16;;;12.77;67.11
75891;BME280;64571;47.512;19.054;2023-05-10T02:18:44;100601.09;;;12.71;66.97
75891;BME280;64571;47.512;19.054;2023-05-10T02:21:49;100619.81;;;12.84;66.68
75891;BME280;64571;47.512;19.054;2023-05-10T02:24:57;100588.47;;;12.74;66.16
75891;BME280;64571;47.512;19.054;2023-05-10T02:28:04;100594.28;;;12.77;65.81
75891;BME280;64571;47.512;19.054;2023-05-10T02:31:10;100610.19;;;12.77;65.23
75891;BME280;64571;47.512;19.054;2023-05-10T02:34:13;100597.78;;;12.83;64.65
75891;BME280;64571;47.512;19.054;2023-05-10T02:37:18;100604.94;;;13.03;64.45
75891;BME280;64571;47.512;19.054;2023-05-10T02:40:22;100609.28;;;13.09;64.27
75891;BME280;64571;47.512;19.054;2023-05-10T02:43:28;100608.34;;;13.13;64.11
75891;BME280;64571;47.512;19.054;2023-05-10T02:46:32;100613.94;;;13.00;64.49
75891;BME280;64571;47.512;19.054;2023-05-10T02:49:36;100608.56;;;13.03;64.49
75891;BME280;64571;47.512;19.054;2023-05-10T02:52:44;100609.06;;;13.05;64.43
75891;BME280;64571;47.512;19.054;2023-05-10T02:55:51;100614.53;;;12.97;64.74
75891;BME280;64571;47.512;19.054;2023-05-10T02:58:55;100610.00;;;13.01;64.73
75891;BME280;64571;47.512;19.054;2023-05-10T03:01:59;100617.88;;;12.99;64.69
75891;BME280;64571;47.512;19.054;2023-05-10T03:05:05;100605.34;;;12.82;64.91
75891;BME280;64571;47.512;19.054;2023-05-10T03:08:08;100614.84;;;12.81;64.72
75891;BME280;64571;47.512;19.054;2023-05-10T03:21:47;100614.22;;;12.71;64.29
75891;BME280;64571;47.512;19.054;2023-05-10T03:24:55;100606.87;;;12.61;64.46
75891;BME280;64571;47.512;19.054;2023-05-10T03:28:01;100617.38;;;12.64;64.25
75891;BME280;64571;47.512;19.054;2023-05-10T03:31:05;100617.94;;;12.66;64.08
75891;BME280;64571;47.512;19.054;2023-05-10T03:34:08;100607.94;;;12.46;64.44
75891;BME280;64571;47.512;19.054;2023-05-10T03:37:11;100613.56;;;12.60;64.35
75891;BME280;64571;47.512;19.054;2023-05-10T03:40:13;100618.72;;;12.53;64.69
75891;BME280;64571;47.512;19.054;2023-05-10T03:43:17;100613.16;;;12.53;64.70
75891;BME280;64571;47.512;19.054;2023-05-10T03:46:20;100611.47;;;12.52;64.53
75891;BME280;64571;47.512;19.054;2023-05-10T03:49:22;100593.91;;;12.51;64.25
75891;BME280;64571;47.512;19.054;2023-05-10T03:52:25;100614.59;;;12.64;64.10
75891;BME280;64571;47.512;19.054;2023-05-10T03:55:28;100612.25;;;12.71;63.67
75891;BME280;64571;47.512;19.054;2023-05-10T03:58:31;100619.66;;;12.62;63.66
75891;BME280;64571;47.512;19.054;2023-05-10T04:01:34;100620.41;;;12.67;63.53
75891;BME280;64571;47.512;19.054;2023-05-10T04:04:37;100619.66;;;12.62;63.67
75891;BME280;64571;47.512;19.054;2023-05-10T04:07:40;100611.22;;;12.67;63.52
75891;BME280;64571;47.512;19.054;2023-05-10T04:10:43;100597.78;;;12.69;63.13
75891;BME280;64571;47.512;19.054;2023-05-10T04:13:45;100596.13;;;12.68;63.10
75891;BME280;64571;47.512;19.054;2023-05-10T04:16:48;100612.25;;;12.71;63.29
75891;BME280;64571;47.512;19.054;2023-05-10T04:19:50;100586.72;;;12.64;63.18
75891;BME280;64571;47.512;19.054;2023-05-10T04:22:55;100606.78;;;12.66;63.52
75891;BME280;64571;47.512;19.054;2023-05-10T04:26:02;100592.16;;;12.55;63.55
75891;BME280;64571;47.512;19.054;2023-05-10T04:29:05;100610.88;;;12.68;63.55
75891;BME280;64571;47.512;19.054;2023-05-10T04:32:07;100627.41;;;12.65;63.75
75891;BME280;64571;47.512;19.054;2023-05-10T04:35:10;100603.41;;;12.50;63.92
75891;BME280;64571;47.512;19.054;2023-05-10T04:38:12;100624.19;;;12.58;64.08
75891;BME280;64571;47.512;19.054;2023-05-10T04:41:15;100615.53;;;12.59;64.06
75891;BME280;64571;47.512;19.054;2023-05-10T04:44:18;100622.84;;;12.55;64.22
75891;BME280;64571;47.512;19.054;2023-05-10T04:47:20;100622.56;;;12.57;64.27
75891;BME280;64571;47.512;19.054;2023-05-10T04:50:23;100603.19;;;12.47;64.14
75891;BME280;64571;47.512;19.054;2023-05-10T04:53:25;100620.81;;;12.61;64.08
75891;BME280;64571;47.512;19.054;2023-05-10T04:56:28;100625.66;;;12.69;63.87
75891;BME280;64571;47.512;19.054;2023-05-10T04:59:31;100619.66;;;12.62;63.96
75891;BME280;64571;47.512;19.054;2023-05-10T05:02:33;100603.84;;;12.57;63.79
75891;BME280;64571;47.512;19.054;2023-05-10T05:05:36;100624.44;;;12.75;63.49
75891;BME280;64571;47.512;19.054;2023-05-10T05:08:38;100624.44;;;12.75;63.66
75891;BME280;64571;47.512;19.054;2023-05-10T05:11:41;100611.09;;;12.72;63.49
75891;BME280;64571;47.512;19.054;2023-05-10T05:14:43;100620.41;;;12.81;63.42
75891;BME280;64571;47.512;19.054;2023-05-10T05:17:46;100622.34;;;12.67;63.58
75891;BME280;64571;47.512;19.054;2023-05-10T05:20:48;100622.38;;;12.81;63.36
75891;BME280;64571;47.512;19.054;2023-05-10T05:23:51;100613.28;;;12.61;63.70
75891;BME280;64571;47.512;19.054;2023-05-10T05:26:53;100621.78;;;12.98;63.08
75891;BME280;64571;47.512;19.054;2023-05-10T05:29:56;100634.19;;;13.05;62.77
75891;BME280;64571;47.512;19.054;2023-05-10T05:32:59;100631.50;;;13.14;62.52
75891;BME280;64571;47.512;19.054;2023-05-10T05:36:05;100619.28;;;12.96;62.36
75891;BME280;64571;47.512;19.054;2023-05-10T05:39:08;100638.84;;;13.10;62.37
75891;BME280;64571;47.512;19.054;2023-05-10T05:42:12;100642.28;;;13.21;62.12
75891;BME280;64571;47.512;19.054;2023-05-10T05:45:15;100628.59;;;13.19;61.88
75891;BME280;64571;47.512;19.054;2023-05-10T05:48:18;100649.81;;;13.20;62.29
75891;BME280;64571;47.512;19.054;2023-05-10T05:51:20;100647.03;;;13.20;62.34
75891;BME280;64571;47.512;19.054;2023-05-10T05:54:23;100653.84;;;13.41;61.73
75891;BME280;64571;47.512;19.054;2023-05-10T05:57:26;100632.06;;;13.93;59.85
75891;BME280;64571;47.512;19.054;2023-05-10T06:00:29;100655.75;;;14.32;58.88
75891;BME280;64571;47.512;19.054;2023-05-10T06:03:31;100657.75;;;14.85;57.15
75891;BME280;64571;47.512;19.054;2023-05-10T06:06:34;100643.47;;;15.18;55.95
75891;BME280;64571;47.512;19.054;2023-05-10T06:09:37;100650.41;;;15.29;55.36
75891;BME280;64571;47.512;19.054;2023-05-10T06:12:40;100650.84;;;15.54;55.13
75891;BME280;64571;47.512;19.054;2023-05-10T06:15:42;100639.03;;;15.74;54.03
75891;BME280;64571;47.512;19.054;2023-05-10T06:18:45;100657.22;;;16.20;53.05
75891;BME280;64571;47.512;19.054;2023-05-10T06:21:47;100641.22;;;15.94;53.53
75891;BME280;64571;47.512;19.054;2023-05-10T06:24:50;100659.59;;;15.21;55.69
75891;BME280;64571;47.512;19.054;2023-05-10T06:27:53;100659.31;;;15.31;55.61
75891;BME280;64571;47.512;19.054;2023-05-10T06:30:59;100660.09;;;15.63;54.74
75891;BME280;64571;47.512;19.054;2023-05-10T06:34:02;100662.97;;;15.98;53.56
75891;BME280;64571;47.512;19.054;2023-05-10T06:37:04;100661.31;;;15.97;53.50
75891;BME280;64571;47.512;19.054;2023-05-10T06:40:07;100652.28;;;15.51;55.02
75891;BME280;64571;47.512;19.054;2023-05-10T06:43:10;100648.03;;;15.62;55.39
75891;BME280;64571;47.512;19.054;2023-05-10T06:46:13;100662.16;;;16.14;54.54
75891;BME280;64571;47.512;19.054;2023-05-10T06:49:15;100644.69;;;16.09;54.59
75891;BME280;64571;47.512;19.054;2023-05-10T06:52:18;100656.56;;;16.23;54.26
75891;BME280;64571;47.512;19.054;2023-05-10T06:55:21;100663.63;;;16.29;54.46
75891;BME280;64571;47.512;19.054;2023-05-10T06:58:23;100662.50;;;16.30;54.39
75891;BME280;64571;47.512;19.054;2023-05-10T07:01:26;100658.81;;;16.90;53.26
75891;BME280;64571;47.512;19.054;2023-05-10T07:04:28;100647.44;;;16.69;53.28
75891;BME280;64571;47.512;19.054;2023-05-10T07:07:31;100663.31;;;16.74;53.63
75891;BME280;64571;47.512;19.054;2023-05-10T07:10:34;100659.50;;;16.79;53.58
75891;BME280;64571;47.512;19.054;2023-05-10T07:13:36;100666.19;;;17.12;52.48
75891;BME280;64571;47.512;19.054;2023-05-10T07:16:41;100668.19;;;17.03;52.58
75891;BME280;64571;47.512;19.054;2023-05-10T07:19:44;100657.03;;;17.24;52.00
75891;BME280;64571;47.512;19.054;2023-05-10T07:22:47;100654.72;;;16.53;53.21
75891;BME280;64571;47.512;19.054;2023-05-10T07:25:51;100654.72;;;16.53;53.63
75891;BME280;64571;47.512;19.054;2023-05-10T07:28:54;100646.78;;;16.55;53.96
75891;BME280;64571;47.512;19.054;2023-05-10T07:31:57;100650.84;;;17.01;52.32
75891;BME280;64571;47.512;19.054;2023-05-10T07:35:00;100651.63;;;17.10;51.74
75891;BME280;64571;47.512;19.054;2023-05-10T07:38:03;100636.38;;;16.56;53.02
75891;BME280;64571;47.512;19.054;2023-05-10T07:41:05;100648.62;;;16.25;54.27
75891;BME280;64571;47.512;19.054;2023-05-10T07:44:08;100622.38;;;16.47;53.77
75891;BME280;64571;47.512;19.054;2023-05-10T07:47:10;100640.50;;;16.84;52.60
75891;BME280;64571;47.512;19.054;2023-05-10T07:50:13;100634.34;;;17.38;50.93
75891;BME280;64571;47.512;19.054;2023-05-10T07:53:16;100630.66;;;16.35;52.98
75891;BME280;64571;47.512;19.054;2023-05-10T07:56:25;100622.88;;;16.49;52.89
75891;BME280;64571;47.512;19.054;2023-05-10T07:59:29;100637.91;;;17.17;51.58
75891;BME280;64571;47.512;19.054;2023-05-10T08:02:32;100641.28;;;17.70;50.09
75891;BME280;64571;47.512;19.054;2023-05-10T08:05:36;100627.03;;;17.45;50.93
75891;BME280;64571;47.512;19.054;2023-05-10T08:08:38;100639.50;;;17.27;51.34
75891;BME280;64571;47.512;19.054;2023-05-10T08:11:41;100642.06;;;17.11;51.65
75891;BME280;64571;47.512;19.054;2023-05-10T08:14:43;100643.47;;;16.79;52.53
75891;BME280;64571;47.512;19.054;2023-05-10T08:17:46;100653.34;;;17.03;51.83
75891;BME280;64571;47.512;19.054;2023-05-10T08:20:48;100641.06;;;17.16;50.72
75891;BME280;64571;47.512;19.054;2023-05-10T08:23:51;100623.31;;;16.86;51.03
75891;BME280;64571;47.512;19.054;2023-05-10T08:26:53;100634.75;;;16.55;52.04
75891;BME280;64571;47.512;19.054;2023-05-10T08:29:56;100641.19;;;17.19;50.45
75891;BME280;64571;47.512;19.054;2023-05-10T08:32:58;100640.59;;;17.73;49.14
75891;BME280;64571;47.512;19.054;2023-05-10T08:36:02;100640.28;;;17.75;48.99
75891;BME280;64571;47.512;19.054;2023-05-10T08:39:04;100637.91;;;17.85;48.27
75891;BME280;64571;47.512;19.054;2023-05-10T08:42:20;100628.59;;;17.34;49.33
75891;BME280;64571;47.512;19.054;2023-05-10T08:45:25;100639.41;;;17.06;50.18
75891;BME280;64571;47.512;19.054;2023-05-10T08:48:33;100642.81;;;17.29;49.48
75891;BME280;64571;47.512;19.054;2023-05-10T08:51:40;100620.13;;;16.96;49.48
75891;BME280;64571;47.512;19.054;2023-05-10T08:54:45;100635.19;;;16.91;49.67
75891;BME280;64571;47.512;19.054;2023-05-10T08:57:47;100639.94;;;17.08;49.98
75891;BME280;64571;47.512;19.054;2023-05-10T09:00:50;100636.47;;;17.11;50.62
75891;BME280;64571;47.512;19.054;2023-05-10T09:03:56;100631.88;;;17.66;49.69
75891;BME280;64571;47.512;19.054;2023-05-10T09:06:58;100636.25;;;17.84;47.86
75891;BME280;64571;47.512;19.054;2023-05-10T09:10:02;100643.56;;;17.77;47.99
75891;BME280;64571;47.512;19.054;2023-05-10T09:13:05;100630.34;;;17.77;47.95
75891;BME280;64571;47.512;19.054;2023-05-10T09:16:09;100618.16;;;17.35;47.85
75891;BME280;64571;47.512;19.054;2023-05-10T09:19:23;100638.78;;;17.77;47.59
75891;BME280;64571;47.512;19.054;2023-05-10T09:22:26;100633.44;;;17.84;47.70
75891;BME280;64571;47.512;19.054;2023-05-10T09:25:29;100610.50;;;17.44;48.48
75891;BME280;64571;47.512;19.054;2023-05-10T09:28:33;100609.87;;;17.68;48.13
75891;BME280;64571;47.512;19.054;2023-05-10T09:31:50;100619.81;;;18.16;47.35
75891;BME280;64571;47.512;19.054;2023-05-10T09:34:57;100635.72;;;18.33;45.93
75891;BME280;64571;47.512;19.054;2023-05-10T09:38:08;100629.31;;;18.78;45.19
75891;BME280;64571;47.512;19.054;2023-05-10T09:41:18;100618.81;;;18.99;44.49
75891;BME280;64571;47.512;19.054;2023-05-10T09:44:21;100617.47;;;18.72;44.87
75891;BME280;64571;47.512;19.054;2023-05-10T09:47:25;100603.88;;;18.53;45.11
75891;BME280;64571;47.512;19.054;2023-05-10T09:50:28;100602.09;;;18.15;45.79
75891;BME280;64571;47.512;19.054;2023-05-10T09:53:31;100617.56;;;18.42;45.29
75891;BME280;64571;47.512;19.054;2023-05-10T09:56:37;100615.06;;;18.62;45.10
75891;BME280;64571;47.512;19.054;2023-05-10T09:59:43;100602.78;;;18.45;45.07
75891;BME280;64571;47.512;19.054;2023-05-10T10:02:47;100612.41;;;19.23;44.05
75891;BME280;64571;47.512;19.054;2023-05-10T10:05:50;100616.53;;;18.80;44.29
75891;BME280;64571;47.512;19.054;2023-05-10T10:08:55;100615.12;;;18.74;44.99
75891;BME280;64571;47.512;19.054;2023-05-10T10:12:02;100605.88;;;18.74;44.94
75891;BME280;64571;47.512;19.054;2023-05-10T10:15:05;100591.06;;;18.43;45.00
75891;BME280;64571;47.512;19.054;2023-05-10T10:18:12;100610.63;;;19.06;44.12
75891;BME280;64571;47.512;19.054;2023-05-10T10:21:16;100598.97;;;19.08;43.74
75891;BME280;64571;47.512;19.054;2023-05-10T10:24:19;100579.28;;;19.20;43.40
75891;BME280;64571;47.512;19.054;2023-05-10T10:27:32;100594.97;;;19.58;42.24
75891;BME280;64571;47.512;19.054;2023-05-10T10:30:42;100579.50;;;19.39;41.87
75891;BME280;64571;47.512;19.054;2023-05-10T10:34:06;100584.31;;;19.27;42.11
75891;BME280;64571;47.512;19.054;2023-05-10T10:37:09;100577.84;;;19.38;42.31
75891;BME280;64571;47.512;19.054;2023-05-10T10:43:30;100570.09;;;19.47;41.24
75891;BME280;64571;47.512;19.054;2023-05-10T10:46:34;100569.91;;;20.21;38.50
75891;BME280;64571;47.512;19.054;2023-05-10T10:49:42;100563.75;;;19.63;39.01
75891;BME280;64571;47.512;19.054;2023-05-10T10:52:45;100565.31;;;20.01;39.45
75891;BME280;64571;47.512;19.054;2023-05-10T10:55:48;100562.00;;;19.98;39.53
75891;BME280;64571;47.512;19.054;2023-05-10T10:58:51;100551.91;;;19.33;40.91
75891;BME280;64571;47.512;19.054;2023-05-10T11:01:55;100550.69;;;19.70;40.42
75891;BME280;64571;47.512;19.054;2023-05-10T11:04:57;100553.03;;;20.65;38.81
75891;BME280;64571;47.512;19.054;2023-05-10T11:08:10;100539.72;;;20.50;38.57
75891;BME280;64571;47.512;19.054;2023-05-10T11:11:17;100538.37;;;19.63;39.63
75891;BME280;64571;47.512;19.054;2023-05-10T11:14:21;100536.41;;;19.63;40.10
75891;BME280;64571;47.512;19.054;2023-05-10T11:17:27;100531.66;;;19.67;39.92
75891;BME280;64571;47.512;19.054;2023-05-10T11:20:39;100540.72;;;19.48;40.52
75891;BME280;64571;47.512;19.054;2023-05-10T11:23:49;100533.31;;;19.44;41.02
75891;BME280;64571;47.512;19.054;2023-05-10T11:26:53;100517.84;;;19.13;40.93
75891;BME280;64571;47.512;19.054;2023-05-10T11:29:56;100529.50;;;19.24;40.70
75891;BME280;64571;47.512;19.054;2023-05-10T11:32:59;100523.28;;;19.06;40.52
75891;BME280;64571;47.512;19.054;2023-05-10T11:36:02;100529.47;;;19.00;40.98
75891;BME280;64571;47.512;19.054;2023-05-10T11:39:05;100523.25;;;18.94;41.17
75891;BME280;64571;47.512;19.054;2023-05-10T11:42:08;100519.88;;;19.01;41.06
75891;BME280;64571;47.512;19.054;2023-05-10T11:45:11;100520.81;;;18.92;40.74
75891;BME280;64571;47.512;19.054;2023-05-10T11:48:14;100517.50;;;19.15;40.41
75891;BME280;64571;47.512;19.054;2023-05-10T11:51:23;100517.72;;;19.34;40.32
75891;BME280;64571;47.512;19.054;2023-05-10T11:54:25;100514.22;;;19.25;40.21
75891;BME280;64571;47.512;19.054;2023-05-10T11:57:28;100518.41;;;19.43;39.85
75891;BME280;64571;47.512;19.054;2023-05-10T12:00:31;100512.91;;;19.35;40.19
75891;BME280;64571;47.512;19.054;2023-05-10T12:03:35;100519.78;;;19.49;40.21
75891;BME280;64571;47.512;19.054;2023-05-10T12:06:40;100512.56;;;19.24;40.21
75891;BME280;64571;47.512;19.054;2023-05-10T12:09:44;100518.41;;;19.31;40.21
75891;BME280;64571;47.512;19.054;2023-05-10T12:12:47;100512.31;;;19.41;39.76
75891;BME280;64571;47.512;19.054;2023-05-10T12:15:50;100508.53;;;19.62;39.20
75891;BME280;64571;47.512;19.054;2023-05-10T12:18:57;100516.03;;;19.58;38.97
75891;BME280;64571;47.512;19.054;2023-05-10T12:22:04;100516.22;;;19.37;39.21
75891;BME280;64571;47.512;19.054;2023-05-10T12:25:08;100519.34;;;19.35;39.58
75891;BME280;64571;47.512;19.054;2023-05-10T12:28:11;100492.91;;;19.64;39.10
75891;BME280;64571;47.512;19.054;2023-05-10T12:31:14;100493.66;;;19.37;39.42
75891;BME280;64571;47.512;19.054;2023-05-10T12:34:26;100505.25;;;19.47;39.36
75891;BME280;64571;47.512;19.054;2023-05-10T12:37:32;100495.88;;;20.40;37.40
75891;BME280;64571;47.512;19.054;2023-05-10T12:40:38;100502.91;;;20.62;37.44
75891;BME280;64571;47.512;19.054;2023-05-10T12:43:40;100494.91;;;20.20;38.18
75891;BME280;64571;47.512;19.054;2023-05-10T12:46:43;100493.47;;;19.70;38.96
75891;BME280;64571;47.512;19.054;2023-05-10T12:49:46;100484.75;;;19.75;39.02
75891;BME280;64571;47.512;19.054;2023-05-10T12:52:48;100473.63;;;19.54;39.43
75891;BME280;64571;47.512;19.054;2023-05-10T12:55:51;100485.81;;;19.70;38.90
75891;BME280;64571;47.512;19.054;2023-05-10T12:58:54;100487.87;;;19.45;38.63
75891;BME280;64571;47.512;19.054;2023-05-10T13:01:57;100474.81;;;19.53;38.36
75891;BME280;64571;47.512;19.054;2023-05-10T13:05:00;100470.69;;;19.63;39.29
75891;BME280;64571;47.512;19.054;2023-05-10T13:08:03;100477.63;;;19.93;37.75
75891;BME280;64571;47.512;19.054;2023-05-10T13:11:06;100473.72;;;20.42;37.13
75891;BME280;64571;47.512;19.054;2023-05-10T13:14:08;100445.06;;;20.56;37.01
75891;BME280;64571;47.512;19.054;2023-05-10T13:17:11;100471.75;;;20.58;36.27
75891;BME280;64571;47.512;19.054;2023-05-10T13:20:13;100467.25;;;21.05;35.65
75891;BME280;64571;47.512;19.054;2023-05-10T13:23:17;100432.66;;;20.60;36.31
75891;BME280;64571;47.512;19.054;2023-05-10T13:26:19;100451.16;;;21.24;34.89
75891;BME280;64571;47.512;19.054;2023-05-10T13:29:22;100440.44;;;21.49;34.69
75891;BME280;64571;47.512;19.054;2023-05-10T13:32:25;100435.88;;;22.03;33.86
75891;BME280;64571;47.512;19.054;2023-05-10T13:35:28;100446.22;;;22.15;33.64
75891;BME280;64571;47.512;19.054;2023-05-10T13:38:31;100435.91;;;21.29;34.39
75891;BME280;64571;47.512;19.054;2023-05-10T13:41:33;100416.25;;;20.82;35.27
75891;BME280;64571;47.512;19.054;2023-05-10T13:44:36;100423.81;;;20.62;36.16
75891;BME280;64571;47.512;19.054;2023-05-10T13:47:41;100420.06;;;20.42;36.71
75891;BME280;64571;47.512;19.054;2023-05-10T13:50:43;100428.50;;;20.54;36.65
75891;BME280;64571;47.512;19.054;2023-05-10T13:53:46;100414.88;;;20.28;36.87
75891;BME280;64571;47.512;19.054;2023-05-10T13:56:49;100415.25;;;20.74;36.04
75891;BME280;64571;47.512;19.054;2023-05-10T13:59:52;100424.72;;;20.82;34.68
75891;BME280;64571;47.512;19.054;2023-05-10T14:02:55;100412.47;;;20.58;34.73
75891;BME280;64571;47.512;19.054;2023-05-10T14:05:58;100415.44;;;20.18;35.24
75891;BME280;64571;47.512;19.054;2023-05-10T14:09:00;100409.13;;;20.09;35.44
75891;BME280;64571;47.512;19.054;2023-05-10T14:12:03;100395.16;;;19.84;34.54
75891;BME280;64571;47.512;19.054;2023-05-10T14:15:06;100406.94;;;20.02;35.03
75891;BME280;64571;47.512;19.054;2023-05-10T14:18:09;100396.59;;;20.22;34.90
75891;BME280;64571;47.512;19.054;2023-05-10T14:21:12;100402.84;;;20.00;34.96
75891;BME280;64571;47.512;19.054;2023-05-10T14:24:15;100402.25;;;19.94;35.01
75891;BME280;64571;47.512;19.054;2023-05-10T14:27:17;100392.38;;;20.00;34.98
75891;BME280;64571;47.512;19.054;2023-05-10T14:30:20;100391.72;;;20.07;35.24
75891;BME280;64571;47.512;19.054;2023-05-10T14:33:23;100390.28;;;19.97;34.89
75891;BME280;64571;47.512;19.054;2023-05-10T14:36:25;100372.47;;;19.81;34.52
75891;BME280;64571;47.512;19.054;2023-05-10T14:39:28;100391.34;;;19.92;34.33
75891;BME280;64571;47.512;19.054;2023-05-10T14:42:34;100385.59;;;19.89;33.82
75891;BME280;64571;47.512;19.054;2023-05-10T14:45:37;100383.91;;;20.16;33.57
75891;BME280;64571;47.512;19.054;2023-05-10T14:48:39;100384.81;;;20.20;33.55
75891;BME280;64571;47.512;19.054;2023-05-10T14:51:42;100379.44;;;19.99;34.15
75891;BME280;64571;47.512;19.054;2023-05-10T14:54:44;100383.34;;;19.94;34.35
75891;BME280;64571;47.512;19.054;2023-05-10T14:57:47;100391.16;;;19.85;35.11
75891;BME280;64571;47.512;19.054;2023-05-10T15:00:51;100379.37;;;19.67;35.74
75891;BME280;64571;47.512;19.054;2023-05-10T15:03:54;100371.22;;;19.50;36.44
75891;BME280;64571;47.512;19.054;2023-05-10T15:06:57;100375.56;;;19.47;37.13
75891;BME280;64571;47.512;19.054;2023-05-10T15:10:01;100373.13;;;19.46;37.13
75891;BME280;64571;47.512;19.054;2023-05-10T15:13:04;100378.94;;;19.25;37.26
75891;BME280;64571;47.512;19.054;2023-05-10T15:16:07;100388.88;;;19.35;37.31
75891;BME280;64571;47.512;19.054;2023-05-10T15:19:09;100381.84;;;19.41;36.99
75891;BME280;64571;47.512;19.054;2023-05-10T15:22:12;100396.69;;;19.54;36.50
75891;BME280;64571;47.512;19.054;2023-05-10T15:25:14;100391.81;;;19.38;36.34
75891;BME280;64571;47.512;19.054;2023-05-10T15:28:18;100388.12;;;19.50;35.99
75891;BME280;64571;47.512;19.054;2023-05-10T15:31:21;100379.59;;;19.34;36.07
75891;BME280;64571;47.512;19.054;2023-05-10T15:34:23;100373.31;;;19.25;35.79
75891;BME280;64571;47.512;19.054;2023-05-10T15:37:26;100383.31;;;19.51;35.69
75891;BME280;64571;47.512;19.054;2023-05-10T15:40:28;100382.84;;;19.48;35.87
75891;BME280;64571;47.512;19.054;2023-05-10T15:43:31;100377.69;;;19.51;35.74
75891;BME280;64571;47.512;19.054;2023-05-10T15:46:33;100377.03;;;19.57;35.90
75891;BME280;64571;47.512;19.054;2023-05-10T15:49:36;100375.03;;;19.58;36.04
75891;BME280;64571;47.512;19.054;2023-05-10T15:52:38;100366.00;;;19.36;36.63
75891;BME280;64571;47.512;19.054;2023-05-10T15:55:41;100367.53;;;19.34;37.03
75891;BME280;64571;47.512;19.054;2023-05-10T15:58:44;100377.19;;;19.20;37.54
75891;BME280;64571;47.512;19.054;2023-05-10T16:01:46;100364.16;;;19.16;37.76
75891;BME280;64571;47.512;19.054;2023-05-10T16:04:49;100354.63;;;18.92;37.80
75891;BME280;64571;47.512;19.054;2023-05-10T16:07:52;100377.09;;;19.05;37.09
75891;BME280;64571;47.512;19.054;2023-05-10T16:10:56;100377.69;;;19.10;36.65
75891;BME280;64571;47.512;19.054;2023-05-10T16:13:58;100366.09;;;19.00;36.66
75891;BME280;64571;47.512;19.054;2023-05-10T16:17:01;100383.78;;;19.12;36.70